KBKT/BKT METAR and TAF weather

Enter ICAO airport designator
Station Type Date Time Source
KBKT METAR 2021/01/20 22:55 UTC NOAA

KBKT 202255Z AUTO 07003KT 10SM CLR 05/M08 A3010 RMK AO1 T00511082


Station Type Date Time Source
KBKT Decoded METAR 2021/01/20 22:55 UTC NOAA

Ft. Pickett / Blackstone, VA, United States (KBKT) 37-05N 077-57W
Jan 20, 2021 - 05:55 PM EST / 2021.01.20 2255 UTC
Wind: from the ENE (070 degrees) at 3 MPH (3 KT):0
Visibility: 10 mile(s):0
Sky conditions: clear
Temperature: 41.2 F (5.1 C)
Dew Point: 17.2 F (-8.2 C)
Relative Humidity: 37%
Pressure (altimeter): 30.1 in. Hg (1019 hPa)
ob: KBKT 202255Z AUTO 07003KT 10SM CLR 05/M08 A3010 RMK AO1 T00511082
cycle: 23

Station Type Date Time Source
KBKT TAF UTC NOAA

Error!

Example: see airport list